Time;durP1;ratioP1;P1;durP2;ratioP2;P2;SDS_P1;SDS_P2;PMS_P1;PMS_P2;Temp;Humidity;BMP_temperature;BMP_pressure;BME280_temperature;BME280_humidity;BME280_pressure;Samples;Min_cycle;Max_cycle;Signal;HPM_P1;HPM_P2
2023/10/21 00:00:30;;;;;;;40.50;18.33;;;;;;;7.43;100.00;98171.16;4214810;28;20238;-71
2023/10/21 00:02:57;;;;;;;40.30;17.33;;;;;;;7.51;100.00;98167.53;4219391;28;20233;-74
2023/10/21 00:05:25;;;;;;;38.40;17.57;;;;;;;7.41;100.00;98163.22;4212673;28;20267;-71
2023/10/21 00:07:51;;;;;;;39.60;17.47;;;;;;;7.40;100.00;98155.34;4212786;28;20673;-71
2023/10/21 00:10:18;;;;;;;45.30;17.70;;;;;;;7.37;100.00;98156.56;4216830;28;23019;-73
2023/10/21 00:12:45;;;;;;;40.83;18.87;;;;;;;7.43;100.00;98163.88;4221503;28;21145;-73
2023/10/21 00:15:12;;;;;;;45.23;17.93;;;;;;;7.51;100.00;98164.84;4218640;28;20598;-73
2023/10/21 00:17:38;;;;;;;39.50;18.23;;;;;;;7.43;100.00;98180.03;4217140;28;20245;-69
2023/10/21 00:20:06;;;;;;;49.20;19.77;;;;;;;7.45;100.00;98169.94;4211265;28;20248;-73
2023/10/21 00:22:33;;;;;;;40.77;18.47;;;;;;;7.51;100.00;98175.59;4219318;28;20324;-73
2023/10/21 00:25:03;;;;;;;43.60;18.47;;;;;;;7.48;100.00;98192.97;4221463;28;20232;-71
2023/10/21 00:27:30;;;;;;;44.87;18.33;;;;;;;7.49;100.00;98194.63;4221893;28;21552;-70
2023/10/21 00:29:56;;;;;;;40.27;18.30;;;;;;;7.50;100.00;98195.47;4219108;28;22124;-70
2023/10/21 00:32:23;;;;;;;40.07;17.93;;;;;;;7.46;100.00;98197.69;4212276;28;23076;-71
2023/10/21 00:34:50;;;;;;;45.93;19.23;;;;;;;7.45;100.00;98202.25;4218104;28;20235;-74
2023/10/21 00:37:16;;;;;;;49.43;19.70;;;;;;;7.51;100.00;98199.81;4217089;28;20310;-72
2023/10/21 00:39:44;;;;;;;49.33;19.87;;;;;;;7.45;100.00;98186.09;4226549;28;20232;-71
2023/10/21 00:42:11;;;;;;;39.63;19.83;;;;;;;7.45;100.00;98188.78;4225830;28;20240;-72
2023/10/21 00:44:37;;;;;;;49.73;20.23;;;;;;;7.48;100.00;98182.19;4224398;28;20229;-73
2023/10/21 00:47:04;;;;;;;40.37;18.73;;;;;;;7.56;100.00;98198.25;4223799;28;20236;-72
2023/10/21 00:49:32;;;;;;;47.03;20.37;;;;;;;7.57;100.00;98194.56;4230501;28;20309;-70
2023/10/21 00:52:00;;;;;;;45.13;19.93;;;;;;;7.53;100.00;98195.94;4229720;28;23461;-71
2023/10/21 00:54:27;;;;;;;54.27;21.20;;;;;;;7.58;100.00;98204.31;4224704;28;20231;-70
2023/10/21 00:56:54;;;;;;;46.23;19.80;;;;;;;7.54;100.00;98208.38;4217046;28;20457;-71
2023/10/21 00:59:23;;;;;;;46.30;20.73;;;;;;;7.56;100.00;98209.03;4217882;28;20238;-73
2023/10/21 01:01:50;;;;;;;51.67;20.93;;;;;;;7.54;100.00;98203.00;4225123;28;20236;-74
2023/10/21 01:04:18;;;;;;;49.27;20.70;;;;;;;7.57;100.00;98197.25;4233315;28;20242;-70
2023/10/21 01:06:45;;;;;;;53.63;21.20;;;;;;;7.59;100.00;98192.50;4213621;28;21645;-72
2023/10/21 01:09:15;;;;;;;57.97;22.57;;;;;;;7.57;100.00;98186.47;4213818;28;20260;-72
2023/10/21 01:11:42;;;;;;;54.40;22.03;;;;;;;7.58;100.00;98196.25;4219005;28;20403;-71
2023/10/21 01:14:09;;;;;;;50.53;21.70;;;;;;;7.59;100.00;98203.25;4217254;28;20235;-73
2023/10/21 01:16:36;;;;;;;49.63;21.80;;;;;;;7.67;100.00;98209.59;4220487;28;20228;-70
2023/10/21 01:19:06;;;;;;;50.10;22.00;;;;;;;7.65;100.00;98212.47;4202313;28;21774;-71
2023/10/21 01:21:32;;;;;;;51.63;22.30;;;;;;;7.63;100.00;98200.22;4209879;28;21813;-72
2023/10/21 01:23:59;;;;;;;60.83;23.20;;;;;;;7.57;100.00;98188.31;4201476;28;21220;-73
2023/10/21 01:26:25;;;;;;;59.57;23.47;;;;;;;7.65;100.00;98196.31;4203106;28;23037;-70
2023/10/21 01:28:52;;;;;;;53.13;21.73;;;;;;;7.67;100.00;98193.44;4222243;28;23227;-72
2023/10/21 01:31:18;;;;;;;55.03;22.93;;;;;;;7.64;100.00;98207.28;4214757;28;20301;-70
2023/10/21 01:33:45;;;;;;;55.17;22.20;;;;;;;7.59;100.00;98202.44;4214452;28;21107;-71
2023/10/21 01:36:12;;;;;;;57.10;22.40;;;;;;;7.67;100.00;98196.97;4217318;28;20242;-71
2023/10/21 01:38:39;;;;;;;55.83;22.63;;;;;;;7.66;100.00;98187.22;4205268;28;20241;-72
2023/10/21 01:41:08;;;;;;;54.37;22.37;;;;;;;7.66;100.00;98191.78;4198497;28;20322;-69
2023/10/21 01:43:35;;;;;;;54.27;22.53;;;;;;;7.64;100.00;98194.63;4208020;28;20232;-71
2023/10/21 01:46:05;;;;;;;53.53;22.47;;;;;;;7.74;100.00;98199.78;4220527;28;20356;-69
2023/10/21 01:48:32;;;;;;;55.60;23.43;;;;;;;7.70;100.00;98193.06;4218868;28;20372;-71
2023/10/21 01:51:05;;;;;;;52.83;21.97;;;;;;;7.72;100.00;98212.59;4212650;28;23051;-76
2023/10/21 01:53:32;;;;;;;59.13;23.43;;;;;;;7.69;100.00;98210.25;4219306;28;20478;-71
2023/10/21 01:56:02;;;;;;;53.30;22.13;;;;;;;7.75;100.00;98201.44;4223311;28;20678;-71
2023/10/21 01:58:31;;;;;;;54.00;22.20;;;;;;;7.72;100.00;98199.94;4207931;28;21006;-74
2023/10/21 02:00:58;;;;;;;59.10;22.47;;;;;;;7.74;100.00;98208.69;4221547;28;20244;-73
2023/10/21 02:03:25;;;;;;;56.23;24.13;;;;;;;7.80;100.00;98209.81;4223241;28;21740;-70
2023/10/21 02:05:52;;;;;;;49.60;21.97;;;;;;;7.74;100.00;98195.22;4217775;28;21701;-73
2023/10/21 02:08:18;;;;;;;52.37;21.63;;;;;;;7.77;100.00;98212.88;4219960;28;20615;-70
2023/10/21 02:10:45;;;;;;;63.80;24.60;;;;;;;7.71;100.00;98208.22;4232282;28;26257;-74
2023/10/21 02:13:12;;;;;;;59.80;23.20;;;;;;;7.70;100.00;98198.47;4209936;28;20247;-68
2023/10/21 02:15:40;;;;;;;53.33;22.57;;;;;;;7.73;100.00;98204.31;4205965;28;21212;-70
2023/10/21 02:18:07;;;;;;;59.30;23.33;;;;;;;7.78;100.00;98220.75;4206269;28;20236;-68
2023/10/21 02:20:36;;;;;;;48.20;22.17;;;;;;;7.77;100.00;98223.63;4226202;28;20690;-74
2023/10/21 02:23:03;;;;;;;57.23;23.57;;;;;;;7.75;100.00;98204.97;4221720;28;20413;-74
2023/10/21 02:25:31;;;;;;;61.37;23.73;;;;;;;7.77;100.00;98205.63;4224415;28;20236;-69
2023/10/21 02:28:00;;;;;;;52.80;22.57;;;;;;;7.81;100.00;98216.88;4233841;28;20325;-69
2023/10/21 02:30:27;;;;;;;53.70;23.17;;;;;;;7.80;100.00;98222.44;4214457;28;20515;-72
2023/10/21 02:32:54;;;;;;;56.03;24.33;;;;;;;7.79;100.00;98235.06;4220950;28;20270;-68
2023/10/21 02:35:21;;;;;;;60.33;24.33;;;;;;;7.79;100.00;98224.28;4214395;28;23520;-74
2023/10/21 02:37:48;;;;;;;60.23;25.30;;;;;;;7.76;100.00;98232.72;4236293;28;20238;-71
2023/10/21 02:40:17;;;;;;;61.87;25.60;;;;;;;7.77;100.00;98234.41;4216022;28;21679;-70
2023/10/21 02:42:45;;;;;;;59.67;24.53;;;;;;;7.81;100.00;98243.81;4207512;28;22228;-72
2023/10/21 02:45:12;;;;;;;58.40;24.90;;;;;;;7.76;100.00;98238.97;4219597;28;24011;-70
2023/10/21 02:47:39;;;;;;;55.07;23.23;;;;;;;7.89;100.00;98250.97;4223403;28;21559;-71
2023/10/21 02:50:06;;;;;;;60.67;24.27;;;;;;;7.85;100.00;98253.19;4216831;28;20371;-70
2023/10/21 02:52:39;;;;;;;60.77;23.80;;;;;;;7.84;100.00;98248.00;4221466;28;20509;-70
2023/10/21 02:55:06;;;;;;;53.57;23.73;;;;;;;7.87;100.00;98242.22;4210117;28;20236;-70
2023/10/21 02:57:34;;;;;;;59.70;24.67;;;;;;;7.93;100.00;98231.56;4212126;28;21149;-71
2023/10/21 03:00:00;;;;;;;48.30;22.33;;;;;;;7.93;100.00;98214.56;4225051;28;21447;-72
2023/10/21 03:02:27;;;;;;;58.67;24.23;;;;;;;7.88;100.00;98209.72;4219924;28;20240;-72
2023/10/21 03:04:54;;;;;;;49.93;22.93;;;;;;;7.85;100.00;98203.88;4215536;28;20239;-72
2023/10/21 03:07:21;;;;;;;62.00;24.53;;;;;;;7.78;100.00;98220.75;4223709;28;20252;-71
2023/10/21 03:09:48;;;;;;;54.37;22.83;;;;;;;7.82;100.00;98215.81;4217896;28;21857;-71
2023/10/21 03:12:14;;;;;;;50.13;23.50;;;;;;;7.92;100.00;98221.78;4208816;28;20896;-72
2023/10/21 03:14:41;;;;;;;59.07;23.70;;;;;;;7.84;100.00;98239.91;4217520;28;20278;-69
2023/10/21 03:17:08;;;;;;;60.13;24.07;;;;;;;7.86;100.00;98232.47;4217433;28;21145;-74
2023/10/21 03:19:34;;;;;;;56.77;24.67;;;;;;;7.82;100.00;98234.69;4216452;28;20341;-71
2023/10/21 03:22:01;;;;;;;51.47;23.27;;;;;;;7.86;100.00;98222.53;4221815;28;20234;-72
2023/10/21 03:24:29;;;;;;;57.13;24.40;;;;;;;7.88;100.00;98217.81;4233386;28;20326;-70
2023/10/21 03:26:55;;;;;;;52.43;24.23;;;;;;;7.88;100.00;98222.34;4226534;28;20552;-70
2023/10/21 03:29:22;;;;;;;54.23;24.70;;;;;;;7.96;100.00;98234.91;4218880;28;20233;-70
2023/10/21 03:31:48;;;;;;;49.87;22.47;;;;;;;7.91;100.00;98230.06;4208843;28;20689;-69
2023/10/21 03:34:15;;;;;;;48.03;23.97;;;;;;;7.87;100.00;98242.22;4222683;28;20246;-71
2023/10/21 03:36:41;;;;;;;53.47;24.47;;;;;;;7.91;100.00;98244.34;4226160;28;22323;-72
2023/10/21 03:39:08;;;;;;;55.10;23.70;;;;;;;7.88;100.00;98251.97;4215714;28;20436;-70
2023/10/21 03:41:35;;;;;;;45.77;22.33;;;;;;;7.85;100.00;98255.88;4221994;28;21923;-70
2023/10/21 03:44:03;;;;;;;50.20;23.67;;;;;;;7.85;100.00;98246.97;4210933;28;20252;-71
2023/10/21 03:46:30;;;;;;;52.57;22.80;;;;;;;7.92;100.00;98253.28;4214337;28;21264;-72
2023/10/21 03:48:57;;;;;;;52.73;23.37;;;;;;;7.95;100.00;98262.88;4224602;28;20225;-70
2023/10/21 03:51:24;;;;;;;48.03;22.83;;;;;;;7.93;100.00;98260.38;4207890;28;20298;-70
2023/10/21 03:53:50;;;;;;;53.70;23.30;;;;;;;7.87;100.00;98282.63;4204140;28;20617;-72
2023/10/21 03:56:17;;;;;;;47.03;23.47;;;;;;;7.96;100.00;98270.75;4210487;28;22104;-71
2023/10/21 03:58:44;;;;;;;46.60;23.07;;;;;;;7.90;100.00;98268.78;4222602;28;20496;-72
2023/10/21 04:01:10;;;;;;;49.13;22.27;;;;;;;7.95;100.00;98284.41;4211252;28;20334;-72
2023/10/21 04:03:37;;;;;;;61.47;23.70;;;;;;;7.96;100.00;98284.22;4206079;28;20248;-69
2023/10/21 04:06:04;;;;;;;44.73;23.63;;;;;;;8.00;100.00;98282.00;4203177;28;26207;-69
2023/10/21 04:08:30;;;;;;;53.97;23.33;;;;;;;8.04;100.00;98272.53;4207522;28;20418;-71
2023/10/21 04:10:57;;;;;;;48.97;23.73;;;;;;;8.00;100.00;98276.59;4214555;28;20287;-70
2023/10/21 04:13:24;;;;;;;47.43;23.27;;;;;;;8.00;100.00;98280.16;4212070;28;21123;-72
2023/10/21 04:15:52;;;;;;;50.13;22.63;;;;;;;8.03;100.00;98276.25;4208760;28;20902;-71
2023/10/21 04:18:19;;;;;;;51.43;23.43;;;;;;;7.99;100.00;98269.53;4205454;28;20240;-70
2023/10/21 04:20:45;;;;;;;57.00;23.87;;;;;;;8.01;100.00;98280.97;4222737;28;22253;-69
2023/10/21 04:23:12;;;;;;;48.83;22.93;;;;;;;8.01;100.00;98284.50;4217878;28;21638;-70
2023/10/21 04:25:39;;;;;;;48.97;22.83;;;;;;;8.08;100.00;98290.81;4200784;28;20241;-70
2023/10/21 04:28:06;;;;;;;51.60;23.50;;;;;;;8.08;100.00;98290.00;4220353;28;21196;-73
2023/10/21 04:30:33;;;;;;;56.27;24.03;;;;;;;8.02;100.00;98285.34;4220196;28;20232;-69
2023/10/21 04:33:00;;;;;;;53.80;25.03;;;;;;;8.01;100.00;98287.19;4217595;28;20239;-72
2023/10/21 04:35:26;;;;;;;57.17;24.27;;;;;;;8.01;100.00;98278.28;4217055;28;20243;-69
2023/10/21 04:37:59;;;;;;;49.80;24.03;;;;;;;8.07;100.00;98278.41;4212739;28;20338;-68
2023/10/21 04:40:25;;;;;;;48.50;23.43;;;;;;;8.05;100.00;98283.13;4221124;28;21574;-70
2023/10/21 04:42:52;;;;;;;47.37;22.90;;;;;;;8.10;100.00;98282.56;4214762;28;21222;-69
2023/10/21 04:45:18;;;;;;;50.97;23.97;;;;;;;8.07;100.00;98272.16;4218472;28;20289;-69
2023/10/21 04:47:45;;;;;;;51.27;24.70;;;;;;;8.04;100.00;98275.25;4214459;28;20243;-70
2023/10/21 04:50:12;;;;;;;53.83;24.70;;;;;;;7.94;100.00;98280.88;4212043;28;20298;-72
2023/10/21 04:52:38;;;;;;;59.20;24.83;;;;;;;7.97;100.00;98288.59;4227857;28;20239;-69
2023/10/21 04:55:05;;;;;;;64.90;25.33;;;;;;;8.02;100.00;98293.44;4216735;28;20647;-71
2023/10/21 04:57:32;;;;;;;52.20;23.60;;;;;;;8.06;100.00;98303.66;4216137;28;20534;-69
2023/10/21 04:59:59;;;;;;;52.30;24.43;;;;;;;8.07;100.00;98313.44;4220735;28;20230;-69
2023/10/21 05:02:26;;;;;;;52.20;23.23;;;;;;;8.09;100.00;98314.06;4220737;28;20227;-68
2023/10/21 05:04:54;;;;;;;51.67;23.63;;;;;;;8.04;100.00;98308.41;4211197;28;22679;-68
2023/10/21 05:07:20;;;;;;;50.63;24.20;;;;;;;8.02;100.00;98302.34;4226795;28;20307;-67
2023/10/21 05:09:47;;;;;;;52.47;24.23;;;;;;;8.05;100.00;98304.69;4228236;28;20235;-73
2023/10/21 05:12:14;;;;;;;56.77;24.23;;;;;;;8.16;100.00;98318.72;4218201;28;21956;-68
2023/10/21 05:14:41;;;;;;;52.60;22.77;;;;;;;8.19;100.00;98326.44;4214794;28;20274;-68
2023/10/21 05:17:07;;;;;;;53.17;23.90;;;;;;;8.19;100.00;98329.13;4227564;28;20647;-69
2023/10/21 05:19:34;;;;;;;52.03;23.80;;;;;;;8.09;100.00;98345.56;4227711;28;23651;-69
2023/10/21 05:22:02;;;;;;;49.73;23.90;;;;;;;8.17;100.00;98332.03;4211062;28;22109;-69
2023/10/21 05:24:29;;;;;;;51.57;24.10;;;;;;;8.12;100.00;98336.28;4231574;28;20306;-68
2023/10/21 05:26:56;;;;;;;49.23;24.07;;;;;;;8.13;100.00;98338.78;4217703;28;20235;-68
2023/10/21 05:29:23;;;;;;;55.50;24.40;;;;;;;8.12;100.00;98331.72;4220328;28;20230;-70
2023/10/21 05:31:50;;;;;;;47.60;23.60;;;;;;;8.16;100.00;98334.88;4225502;28;20239;-69
2023/10/21 05:34:19;;;;;;;62.00;25.43;;;;;;;8.09;100.00;98332.09;4222594;28;20283;-69
2023/10/21 05:36:46;;;;;;;60.17;25.97;;;;;;;8.11;100.00;98332.75;4220827;28;20231;-70
2023/10/21 05:39:13;;;;;;;59.33;25.53;;;;;;;8.12;100.00;98329.03;4219839;28;20592;-70
2023/10/21 05:41:41;;;;;;;49.40;25.57;;;;;;;8.13;100.00;98322.63;4240483;28;23095;-67
2023/10/21 05:44:08;;;;;;;53.83;25.87;;;;;;;8.15;100.00;98334.06;4230977;28;20232;-70
2023/10/21 05:46:35;;;;;;;58.10;25.13;;;;;;;8.13;100.00;98346.88;4234898;28;20294;-69
2023/10/21 05:49:03;;;;;;;63.67;28.00;;;;;;;8.15;100.00;98350.22;4255957;28;21270;-70
2023/10/21 05:51:30;;;;;;;59.23;26.33;;;;;;;8.21;100.00;98357.56;4241765;28;20243;-68
2023/10/21 05:53:57;;;;;;;56.70;24.93;;;;;;;8.29;100.00;98361.19;4232417;28;20239;-68
2023/10/21 05:56:25;;;;;;;56.07;25.27;;;;;;;8.30;100.00;98365.56;4228286;28;20235;-69
2023/10/21 05:58:52;;;;;;;56.67;26.20;;;;;;;8.33;100.00;98376.00;4244609;28;21113;-70
2023/10/21 06:01:18;;;;;;;62.03;25.80;;;;;;;8.31;100.00;98367.25;4232464;28;22027;-69
2023/10/21 06:03:45;;;;;;;52.80;25.30;;;;;;;8.28;100.00;98362.22;4225071;28;20932;-72
2023/10/21 06:06:12;;;;;;;59.63;24.40;;;;;;;8.30;100.00;98376.38;4242356;28;21338;-66
2023/10/21 06:08:39;;;;;;;54.23;24.87;;;;;;;8.36;100.00;98391.78;4227396;28;20236;-67
2023/10/21 06:11:08;;;;;;;56.30;25.73;;;;;;;8.31;100.00;98394.22;4210689;28;20496;-72
2023/10/21 06:13:35;;;;;;;57.50;26.43;;;;;;;8.37;100.00;98380.84;4234725;28;20371;-69
2023/10/21 06:16:02;;;;;;;50.87;25.80;;;;;;;8.39;100.00;98386.06;4225519;28;23602;-72
2023/10/21 06:18:29;;;;;;;63.83;26.53;;;;;;;8.44;100.00;98396.28;4213689;28;20247;-76
2023/10/21 06:20:56;;;;;;;71.93;26.13;;;;;;;8.43;100.00;98387.34;4205371;28;20280;-72
2023/10/21 06:23:23;;;;;;;53.97;27.10;;;;;;;8.51;100.00;98395.38;4234199;28;20254;-72
2023/10/21 06:25:50;;;;;;;54.63;25.10;;;;;;;8.61;100.00;98396.97;4218658;28;21539;-70
2023/10/21 06:28:16;;;;;;;53.90;25.87;;;;;;;8.54;100.00;98378.00;4217988;28;20239;-71
2023/10/21 06:30:43;;;;;;;52.43;25.50;;;;;;;8.55;100.00;98385.06;4223020;28;20414;-68
2023/10/21 06:33:09;;;;;;;61.07;26.13;;;;;;;8.52;100.00;98393.53;4208017;28;21194;-70
2023/10/21 06:35:40;;;;;;;56.43;27.20;;;;;;;8.56;100.00;98408.31;4220096;28;20356;-69
2023/10/21 06:38:07;;;;;;;58.60;27.43;;;;;;;8.57;100.00;98423.47;4215023;28;20345;-69
2023/10/21 06:40:34;;;;;;;58.33;26.77;;;;;;;8.62;100.00;98420.22;4215399;28;20246;-66
2023/10/21 06:43:21;;;;;;;57.50;26.10;;;;;;;8.59;100.00;98415.19;4217347;28;20447;-67
2023/10/21 06:45:48;;;;;;;58.83;27.37;;;;;;;8.68;100.00;98417.66;4211677;28;20341;-72
2023/10/21 06:48:14;;;;;;;56.40;26.50;;;;;;;8.69;100.00;98424.69;4208577;28;20239;-69
2023/10/21 06:50:41;;;;;;;57.80;27.17;;;;;;;8.66;100.00;98432.31;4220143;28;20232;-69
2023/10/21 06:53:08;;;;;;;58.93;27.80;;;;;;;8.66;100.00;98426.91;4226534;28;20240;-68
2023/10/21 06:55:43;;;;;;;58.93;27.87;;;;;;;8.69;100.00;98440.88;4219266;28;23052;-69
2023/10/21 06:58:13;;;;;;;57.27;26.40;;;;;;;8.76;100.00;98450.94;4236204;28;20247;-66
2023/10/21 07:00:39;;;;;;;63.27;26.77;;;;;;;8.76;100.00;98450.94;4218198;28;20255;-71
2023/10/21 07:03:07;;;;;;;65.27;27.00;;;;;;;8.76;100.00;98457.16;4215876;28;23747;-66
2023/10/21 07:05:37;;;;;;;58.90;25.90;;;;;;;8.76;100.00;98454.47;4212108;28;21911;-70
2023/10/21 07:08:05;;;;;;;53.60;25.73;;;;;;;8.84;100.00;98459.78;4220969;28;20583;-67
2023/10/21 07:10:33;;;;;;;62.73;28.87;;;;;;;8.90;100.00;98477.09;4230545;28;20518;-67
2023/10/21 07:13:00;;;;;;;59.87;27.50;;;;;;;8.90;100.00;98471.69;4223432;28;20225;-69
2023/10/21 07:15:33;;;;;;;59.57;26.90;;;;;;;8.92;100.00;98472.34;4217938;28;22819;-67
2023/10/21 07:17:59;;;;;;;60.87;27.57;;;;;;;8.86;100.00;98478.47;4226396;28;21536;-69
2023/10/21 07:20:26;;;;;;;56.07;27.63;;;;;;;8.95;100.00;98477.38;4216756;28;20248;-69
2023/10/21 07:22:54;;;;;;;62.80;27.60;;;;;;;8.97;100.00;98480.72;4233744;28;20266;-65
2023/10/21 07:25:23;;;;;;;61.50;26.97;;;;;;;8.94;100.00;98480.25;4223886;28;20227;-69
2023/10/21 07:27:50;;;;;;;64.37;29.57;;;;;;;9.02;100.00;98483.69;4221990;28;20376;-66
2023/10/21 07:30:18;;;;;;;50.57;25.33;;;;;;;9.06;100.00;98494.97;4219250;28;20231;-68
2023/10/21 07:32:45;;;;;;;58.43;27.60;;;;;;;9.22;100.00;98490.41;4219808;28;20228;-67
2023/10/21 07:35:12;;;;;;;57.05;29.05;;;;;;;9.13;100.00;98477.00;4219787;28;20491;-69
2023/10/21 07:37:38;;;;;;;54.70;29.42;;;;;;;9.13;100.00;98479.69;4218024;28;20445;-72
2023/10/21 07:40:07;;;;;;;58.72;29.45;;;;;;;9.24;100.00;98480.25;4221648;28;20460;-72
2023/10/21 07:42:34;;;;;;;53.93;24.50;;;;;;;9.23;100.00;98476.72;4223921;28;25834;-67
2023/10/21 07:45:00;;;;;;;52.37;23.90;;;;;;;9.27;100.00;98477.16;4222789;28;20417;-74
2023/10/21 07:47:29;;;;;;;42.07;22.40;;;;;;;9.25;100.00;98492.75;4216692;28;26132;-69
2023/10/21 07:49:56;;;;;;;50.07;22.90;;;;;;;9.22;100.00;98485.00;4215326;28;20232;-71
2023/10/21 07:52:22;;;;;;;48.43;23.23;;;;;;;9.20;100.00;98477.94;4201427;28;20287;-68
2023/10/21 07:54:49;;;;;;;47.40;23.13;;;;;;;9.33;100.00;98485.38;4209509;28;20239;-71
2023/10/21 07:57:16;;;;;;;45.63;22.30;;;;;;;9.40;100.00;98501.69;4219100;28;20259;-68
2023/10/21 07:59:44;;;;;;;46.37;21.93;;;;;;;9.45;100.00;98507.34;4222694;28;21881;-71
2023/10/21 08:02:10;;;;;;;42.53;23.07;;;;;;;9.45;100.00;98510.03;4217385;28;23579;-69
2023/10/21 08:04:37;;;;;;;41.57;21.67;;;;;;;9.45;100.00;98493.84;4218264;28;20314;-67
2023/10/21 08:07:05;;;;;;;39.30;20.57;;;;;;;9.42;100.00;98502.31;4219398;28;20281;-73
2023/10/21 08:09:31;;;;;;;47.63;22.73;;;;;;;9.33;100.00;98504.28;4239812;28;20335;-78
2023/10/21 08:11:59;;;;;;;47.20;22.77;;;;;;;9.39;100.00;98507.25;4220507;28;21474;-72
2023/10/21 08:14:27;;;;;;;47.97;23.30;;;;;;;9.41;100.00;98522.22;4222540;28;20244;-71
2023/10/21 08:16:54;;;;;;;45.07;22.73;;;;;;;9.42;100.00;98506.88;4218007;28;20345;-71
2023/10/21 08:19:22;;;;;;;47.43;23.23;;;;;;;9.39;100.00;98513.50;4203344;28;21689;-70
2023/10/21 08:21:49;;;;;;;39.77;21.93;;;;;;;9.56;100.00;98518.66;4219808;28;20654;-70
2023/10/21 08:24:16;;;;;;;42.33;22.33;;;;;;;9.51;100.00;98521.97;4220090;28;20231;-68
2023/10/21 08:26:42;;;;;;;41.20;20.77;;;;;;;9.68;100.00;98526.13;4220199;28;20914;-70
2023/10/21 08:29:10;;;;;;;44.70;22.27;;;;;;;9.70;100.00;98535.91;4225330;28;20836;-72
2023/10/21 08:31:37;;;;;;;47.93;22.67;;;;;;;9.66;100.00;98532.72;4221534;28;20338;-71
2023/10/21 08:34:05;;;;;;;45.10;22.43;;;;;;;9.63;100.00;98535.84;4218292;28;20347;-69
2023/10/21 08:36:32;;;;;;;42.07;22.27;;;;;;;9.74;100.00;98539.91;4219742;28;20235;-73
2023/10/21 08:38:58;;;;;;;51.17;23.57;;;;;;;9.70;100.00;98554.81;4220605;28;21772;-69
2023/10/21 08:41:34;;;;;;;43.47;22.67;;;;;;;9.75;100.00;98542.41;4213346;28;20235;-72
2023/10/21 08:44:01;;;;;;;45.63;23.13;;;;;;;9.71;100.00;98541.09;4214929;28;20946;-71
2023/10/21 08:46:30;;;;;;;42.23;23.47;;;;;;;9.84;100.00;98553.94;4222567;28;20235;-68
2023/10/21 08:48:57;;;;;;;40.93;23.37;;;;;;;9.87;100.00;98558.13;4205422;28;20233;-70
2023/10/21 08:51:26;;;;;;;41.57;22.00;;;;;;;10.05;100.00;98565.81;4200298;28;20244;-70
2023/10/21 08:53:57;;;;;;;46.40;23.33;;;;;;;9.97;100.00;98562.22;4216478;28;21155;-72
2023/10/21 08:56:23;;;;;;;46.07;23.70;;;;;;;9.90;100.00;98557.75;4207645;28;23172;-70
2023/10/21 08:58:51;;;;;;;45.30;23.57;;;;;;;9.94;100.00;98557.19;4208019;28;20362;-71
2023/10/21 09:01:17;;;;;;;46.53;23.23;;;;;;;10.02;100.00;98574.34;4198607;28;21849;-71
2023/10/21 09:03:44;;;;;;;47.73;23.57;;;;;;;9.94;100.00;98567.16;4228623;28;20228;-72
2023/10/21 09:06:11;;;;;;;50.93;23.93;;;;;;;9.97;100.00;98572.19;4202474;28;22302;-69
2023/10/21 09:08:41;;;;;;;42.70;23.40;;;;;;;9.98;100.00;98566.59;4203200;28;21276;-72
2023/10/21 09:11:10;;;;;;;44.90;23.80;;;;;;;10.07;100.00;98563.78;4207510;28;20222;-70
2023/10/21 09:13:40;;;;;;;46.87;23.30;;;;;;;10.13;100.00;98576.53;4215877;28;20315;-72
2023/10/21 09:16:29;;;;;;;41.53;22.33;;;;;;;10.19;100.00;98599.28;4218614;28;20297;-72
2023/10/21 09:19:01;;;;;;;46.03;22.93;;;;;;;10.22;100.00;98609.72;4218578;28;21567;-72
2023/10/21 09:21:33;;;;;;;39.73;21.53;;;;;;;10.34;100.00;98608.19;4217761;28;20682;-75
2023/10/21 09:24:01;;;;;;;43.43;21.17;;;;;;;10.41;100.00;98619.94;4210573;28;20909;-74
2023/10/21 09:26:36;;;;;;;36.10;21.23;;;;;;;10.68;100.00;98624.78;4224508;28;20232;-76
2023/10/21 09:29:14;;;;;;;39.03;20.67;;;;;;;10.60;100.00;98642.84;4210158;28;20306;-72
2023/10/21 09:31:52;;;;;;;37.33;21.30;;;;;;;10.68;100.00;98647.31;4216021;28;20232;-70
2023/10/21 09:34:33;;;;;;;38.43;20.53;;;;;;;10.85;100.00;98645.16;4219692;28;20635;-69
2023/10/21 09:37:01;;;;;;;33.50;19.80;;;;;;;11.03;100.00;98646.56;4224982;28;20248;-74
2023/10/21 09:39:36;;;;;;;35.07;19.60;;;;;;;11.32;100.00;98650.97;4227574;28;20236;-72
2023/10/21 09:42:05;;;;;;;33.30;18.27;;;;;;;11.12;100.00;98661.66;4222133;28;20231;-69
2023/10/21 09:44:38;;;;;;;26.40;16.30;;;;;;;10.96;100.00;98638.41;4225766;28;20232;-69
2023/10/21 09:47:06;;;;;;;30.40;17.87;;;;;;;10.84;100.00;98643.50;4206635;28;20245;-69
2023/10/21 09:49:40;;;;;;;32.67;17.53;;;;;;;10.88;100.00;98642.06;4219688;28;20234;-73
2023/10/21 09:52:11;;;;;;;29.87;16.77;;;;;;;11.05;100.00;98647.22;4219334;28;20264;-70
2023/10/21 09:54:43;;;;;;;28.27;17.17;;;;;;;11.17;100.00;98648.38;4220485;28;20236;-73
2023/10/21 09:57:12;;;;;;;26.80;16.90;;;;;;;11.00;100.00;98639.66;4210600;28;21218;-73
2023/10/21 09:59:39;;;;;;;30.97;16.70;;;;;;;11.12;100.00;98648.09;4224636;28;21161;-72
2023/10/21 10:02:09;;;;;;;25.63;17.13;;;;;;;10.96;100.00;98642.97;4207508;28;20230;-74
2023/10/21 10:04:36;;;;;;;25.93;15.97;;;;;;;11.03;100.00;98641.16;4209248;28;22881;-73
2023/10/21 10:07:06;;;;;;;29.90;15.93;;;;;;;11.33;100.00;98639.13;4238161;28;25019;-71
2023/10/21 10:09:42;;;;;;;39.37;18.10;;;;;;;11.51;100.00;98633.19;4253621;28;20657;-74
2023/10/21 10:12:20;;;;;;;29.03;16.47;;;;;;;11.88;100.00;98624.88;4225609;28;20243;-72
2023/10/21 10:14:46;;;;;;;22.67;14.33;;;;;;;12.16;100.00;98619.38;4230881;28;20270;-76
2023/10/21 10:17:13;;;;;;;22.50;14.40;;;;;;;12.35;100.00;98620.50;4220874;28;20373;-70
2023/10/21 10:19:43;;;;;;;22.97;13.80;;;;;;;12.49;98.83;98628.69;4215657;28;20267;-72
2023/10/21 10:22:20;;;;;;;24.73;13.20;;;;;;;12.43;98.15;98632.22;4233413;28;20231;-72
2023/10/21 10:24:55;;;;;;;22.27;13.13;;;;;;;12.36;98.13;98629.50;4218840;28;25293;-70
2023/10/21 10:27:35;;;;;;;24.83;12.70;;;;;;;12.46;98.17;98631.81;4226356;28;20239;-74
2023/10/21 10:30:08;;;;;;;21.73;13.27;;;;;;;12.56;97.23;98618.69;4231096;28;20235;-76
2023/10/21 10:32:43;;;;;;;23.10;12.47;;;;;;;12.86;96.34;98626.47;4241563;28;20225;-77
2023/10/21 10:35:37;;;;;;;30.43;12.67;;;;;;;13.38;93.70;98620.41;4256930;28;20576;-73
2023/10/21 10:38:20;;;;;;;21.33;11.90;;;;;;;13.80;91.57;98642.75;4263553;28;20302;-73
2023/10/21 10:40:48;;;;;;;23.67;12.13;;;;;;;13.73;91.61;98658.25;4216668;28;20240;-74
2023/10/21 10:43:16;;;;;;;22.60;11.90;;;;;;;13.80;91.27;98664.50;4231392;28;20381;-72
2023/10/21 10:45:43;;;;;;;22.33;11.60;;;;;;;14.01;90.28;98657.16;4236912;28;20591;-73
2023/10/21 10:48:11;;;;;;;24.47;11.97;;;;;;;14.11;89.95;98668.41;4236673;28;20529;-74
2023/10/21 10:50:38;;;;;;;22.60;12.03;;;;;;;13.62;90.56;98666.03;4239805;28;21805;-75
2023/10/21 10:53:22;;;;;;;24.73;12.67;;;;;;;13.40;92.09;98665.41;4228260;28;20246;-72
2023/10/21 10:55:53;;;;;;;23.70;11.97;;;;;;;13.40;91.88;98665.41;4220428;28;20245;-73
2023/10/21 10:58:21;;;;;;;30.00;12.60;;;;;;;13.39;92.08;98657.47;4221325;28;20333;-74
2023/10/21 11:00:48;;;;;;;19.10;12.10;;;;;;;13.64;92.35;98679.41;4215688;28;20306;-74
2023/10/21 11:03:25;;;;;;;22.07;12.97;;;;;;;13.70;92.07;98683.16;4226845;28;20417;-74
2023/10/21 11:05:55;;;;;;;26.93;11.67;;;;;;;13.55;90.46;98689.66;4220945;28;20498;-72
2023/10/21 11:08:23;;;;;;;21.03;12.17;;;;;;;13.31;91.96;98683.78;4220899;28;20233;-72
2023/10/21 11:10:53;;;;;;;23.97;13.17;;;;;;;13.32;92.45;98679.16;4223277;28;20645;-70
2023/10/21 11:13:20;;;;;;;26.40;12.93;;;;;;;13.06;94.43;98675.41;4232943;28;20235;-72
2023/10/21 11:15:51;;;;;;;23.60;13.27;;;;;;;13.15;93.67;98670.59;4224656;28;22978;-74
2023/10/21 11:18:18;;;;;;;26.53;13.93;;;;;;;13.07;94.37;98684.38;4218165;28;20307;-75
2023/10/21 11:20:49;;;;;;;30.63;13.77;;;;;;;12.94;96.29;98683.31;4219977;28;20248;-71